Time;durP1;ratioP1;P1;durP2;ratioP2;P2;SDS_P1;SDS_P2;PMS_P1;PMS_P2;Temp;Humidity;BMP_temperature;BMP_pressure;BME280_temperature;BME280_humidity;BME280_pressure;Samples;Min_cycle;Max_cycle;Signal;HPM_P1;HPM_P2
2023/11/30 00:01:50;;;;;;;5.82;3.05;;;;;;;1.47;100.00;97549.75;5054301;28;20032;-79
2023/11/30 00:04:16;;;;;;;7.70;3.20;;;;;;;1.25;100.00;97522.88;5074693;28;20132;-78
2023/11/30 00:06:41;;;;;;;6.05;3.08;;;;;;;1.17;100.00;97520.28;5054008;28;20036;-78
2023/11/30 00:09:06;;;;;;;8.55;3.80;;;;;;;1.06;100.00;97516.19;5072286;28;20027;-77
2023/11/30 00:11:32;;;;;;;8.15;3.55;;;;;;;0.99;100.00;97525.03;5057404;28;20028;-79
2023/11/30 00:13:57;;;;;;;6.95;3.55;;;;;;;0.97;100.00;97524.38;5067858;28;20020;-78
2023/11/30 00:16:22;;;;;;;7.40;3.65;;;;;;;1.02;100.00;97533.53;5065857;28;20057;-78
2023/11/30 00:18:47;;;;;;;10.80;4.40;;;;;;;1.07;100.00;97548.97;5045008;28;20025;-79
2023/11/30 00:21:13;;;;;;;7.50;3.78;;;;;;;1.05;100.00;97545.66;5057128;28;20021;-77
2023/11/30 00:23:38;;;;;;;8.30;4.03;;;;;;;1.08;100.00;97542.66;5076759;28;20214;-77
2023/11/30 00:26:04;;;;;;;10.05;4.78;;;;;;;1.10;100.00;97551.28;5102374;28;20024;-79
2023/11/30 00:28:30;;;;;;;11.90;4.82;;;;;;;1.02;100.00;97554.84;5081505;28;20080;-78
2023/11/30 00:30:55;;;;;;;9.40;4.53;;;;;;;0.94;100.00;97559.34;5069938;28;20031;-78
2023/11/30 00:33:21;;;;;;;9.95;4.40;;;;;;;0.71;100.00;97535.31;5065687;28;20116;-78
2023/11/30 00:35:46;;;;;;;10.23;4.07;;;;;;;0.52;100.00;97526.72;5068944;28;20021;-79
2023/11/30 00:38:11;;;;;;;6.75;3.75;;;;;;;0.36;100.00;97508.16;5068194;28;20025;-78
2023/11/30 00:40:37;;;;;;;8.45;3.80;;;;;;;0.42;100.00;97534.09;5063127;28;20033;-78
2023/11/30 00:43:03;;;;;;;9.30;4.15;;;;;;;0.33;100.00;97538.59;5061456;28;20029;-77
2023/11/30 00:45:29;;;;;;;7.82;4.15;;;;;;;0.32;100.00;97531.63;5066168;28;20032;-77
2023/11/30 00:47:54;;;;;;;10.00;3.83;;;;;;;0.33;100.00;97538.59;5064673;28;20021;-77
2023/11/30 00:50:19;;;;;;;11.25;4.45;;;;;;;0.29;100.00;97528.44;5065218;28;20308;-78
2023/11/30 00:52:45;;;;;;;8.82;4.65;;;;;;;0.23;100.00;97527.31;5077883;28;20035;-77
2023/11/30 00:55:10;;;;;;;9.20;4.20;;;;;;;0.17;100.00;97528.81;5079781;22;20040;-60
2023/11/30 00:57:35;;;;;;;9.70;3.83;;;;;;;0.12;100.00;97525.00;5054633;28;20139;-61
2023/11/30 01:00:01;;;;;;;8.43;3.50;;;;;;;0.07;100.00;97528.16;5056097;28;20035;-61
2023/11/30 01:02:26;;;;;;;7.13;3.58;;;;;;;0.04;100.00;97523.19;5065871;28;20036;-61
2023/11/30 01:04:52;;;;;;;8.60;4.05;;;;;;;0.02;100.00;97525.19;5055439;28;20204;-61
2023/11/30 01:07:17;;;;;;;7.40;3.55;;;;;;;0.05;100.00;97527.50;5050367;28;20429;-61
2023/11/30 01:09:43;;;;;;;10.40;4.15;;;;;;;0.18;100.00;97524.31;5047483;28;20123;-61
2023/11/30 01:12:08;;;;;;;14.80;5.32;;;;;;;0.29;100.00;97518.66;5062315;28;20028;-61
2023/11/30 01:14:34;;;;;;;9.82;4.40;;;;;;;0.43;100.00;97533.09;5051905;28;20094;-61
2023/11/30 01:16:59;;;;;;;8.65;4.45;;;;;;;0.43;100.00;97522.44;5048831;28;20020;-61
2023/11/30 01:19:24;;;;;;;8.48;4.05;;;;;;;0.52;100.00;97525.91;5065929;28;20055;-61
2023/11/30 01:21:50;;;;;;;7.75;3.75;;;;;;;0.53;100.00;97533.72;5061909;28;20028;-61
2023/11/30 01:24:16;;;;;;;12.07;3.55;;;;;;;0.60;100.00;97540.03;5055234;28;20025;-61
2023/11/30 01:26:41;;;;;;;8.30;4.13;;;;;;;0.60;100.00;97532.03;5056438;28;20028;-61
2023/11/30 01:29:07;;;;;;;10.50;4.40;;;;;;;0.64;100.00;97535.19;5052028;28;20057;-61
2023/11/30 01:31:32;;;;;;;18.35;6.18;;;;;;;0.60;100.00;97532.03;5055016;28;20032;-60
2023/11/30 01:33:57;;;;;;;14.80;6.03;;;;;;;0.61;100.00;97533.69;5058582;28;20141;-61
2023/11/30 01:36:23;;;;;;;16.40;6.70;;;;;;;0.64;100.00;97530.69;5049651;28;20035;-57
2023/11/30 01:38:48;;;;;;;20.65;6.75;;;;;;;0.68;100.00;97525.84;5055290;28;20468;-56
2023/11/30 01:41:14;;;;;;;11.40;5.22;;;;;;;0.74;100.00;97529.66;5054224;28;20032;-56
2023/11/30 01:43:41;;;;;;;8.32;3.97;;;;;;;0.77;100.00;97531.97;5054686;28;20032;-57
2023/11/30 01:46:06;;;;;;;8.65;4.70;;;;;;;0.78;100.00;97521.13;5058018;28;20090;-57
2023/11/30 01:48:33;;;;;;;9.32;4.50;;;;;;;0.78;100.00;97515.81;5054313;28;20017;-57
2023/11/30 01:51:00;;;;;;;11.00;4.50;;;;;;;0.76;100.00;97520.50;5052288;28;20028;-57
2023/11/30 01:53:25;;;;;;;9.80;4.13;;;;;;;0.77;100.00;97518.66;5051736;28;20021;-57
2023/11/30 01:55:51;;;;;;;8.38;4.10;;;;;;;0.76;100.00;97523.16;5056691;28;20032;-57
2023/11/30 01:58:16;;;;;;;6.82;4.18;;;;;;;0.76;100.00;97519.66;5050460;28;20135;-56
2023/11/30 02:00:42;;;;;;;8.18;4.07;;;;;;;0.76;100.00;97519.66;5047242;28;20099;-57
2023/11/30 02:03:08;;;;;;;6.53;3.70;;;;;;;0.74;100.00;97519.03;5056699;28;20032;-56
2023/11/30 02:05:33;;;;;;;7.28;3.88;;;;;;;0.75;100.00;97520.66;5057130;28;20438;-56
2023/11/30 02:08:01;;;;;;;10.93;4.05;;;;;;;0.76;100.00;97509.84;5049925;28;20091;-57
2023/11/30 02:10:26;;;;;;;8.32;4.03;;;;;;;0.73;100.00;97510.19;5053800;28;20028;-56
2023/11/30 02:12:51;;;;;;;6.47;3.70;;;;;;;0.64;100.00;97519.22;5053765;28;20514;-57
2023/11/30 02:15:17;;;;;;;7.55;3.80;;;;;;;0.56;100.00;97517.41;5053345;28;20170;-57
2023/11/30 02:17:44;;;;;;;7.40;3.78;;;;;;;0.48;100.00;97520.09;5052796;28;20178;-56
2023/11/30 02:20:10;;;;;;;7.38;4.05;;;;;;;0.36;100.00;97508.97;5054985;28;20386;-56
2023/11/30 02:22:36;;;;;;;7.82;3.90;;;;;;;0.31;100.00;97495.34;5055411;28;20033;-57
2023/11/30 02:25:01;;;;;;;7.95;4.40;;;;;;;0.30;100.00;97485.72;5070544;28;20391;-56
2023/11/30 02:27:26;;;;;;;9.13;4.85;;;;;;;0.16;100.00;97483.78;5043612;28;20029;-56
2023/11/30 02:29:52;;;;;;;8.45;4.43;;;;;;;0.07;100.00;97477.63;5050529;28;20012;-61
2023/11/30 02:32:17;;;;;;;8.05;4.45;;;;;;;-0.04;100.00;97472.69;5044731;28;20025;-62
2023/11/30 02:34:42;;;;;;;5.85;3.67;;;;;;;-0.16;100.00;97474.03;5057537;28;20472;-61
2023/11/30 02:37:08;;;;;;;5.70;3.10;;;;;;;-0.19;100.00;97464.56;5051765;28;20102;-61
2023/11/30 02:39:33;;;;;;;7.15;3.58;;;;;;;-0.27;100.00;97457.41;5048689;28;20024;-62
2023/11/30 02:41:58;;;;;;;10.73;4.65;;;;;;;-0.30;100.00;97470.22;5058309;28;20067;-61
2023/11/30 02:44:24;;;;;;;8.23;5.13;;;;;;;-0.40;100.00;97467.72;5053628;28;20024;-61
2023/11/30 02:46:49;;;;;;;14.57;6.15;;;;;;;-0.47;100.00;97483.53;5054304;28;20035;-60
2023/11/30 02:49:16;;;;;;;13.75;6.18;;;;;;;-0.53;100.00;97468.22;5060052;28;20402;-61
2023/11/30 02:51:42;;;;;;;9.52;4.85;;;;;;;-0.62;100.00;97474.56;5046202;28;20485;-61
2023/11/30 02:54:07;;;;;;;12.88;5.68;;;;;;;-0.66;100.00;97470.56;5053320;28;20144;-61
2023/11/30 02:56:39;;;;;;;12.43;5.60;;;;;;;-0.80;100.00;97465.91;5059622;28;20426;-61
2023/11/30 02:59:04;;;;;;;11.90;5.43;;;;;;;-0.88;100.00;97470.22;5053762;28;20037;-61
2023/11/30 03:01:29;;;;;;;9.98;5.13;;;;;;;-0.97;100.00;97470.34;5044753;28;20025;-60
2023/11/30 03:03:54;;;;;;;12.82;5.65;;;;;;;-1.01;100.00;97469.03;5052485;28;20024;-61
2023/11/30 03:06:20;;;;;;;11.98;5.68;;;;;;;-1.05;100.00;97465.84;5059745;28;20028;-61
2023/11/30 03:08:46;;;;;;;10.07;5.28;;;;;;;-1.02;100.00;97457.59;5042126;28;20025;-61
2023/11/30 03:11:12;;;;;;;11.43;5.50;;;;;;;-1.03;100.00;97460.41;5051618;28;20422;-61
2023/11/30 03:13:37;;;;;;;11.20;5.82;;;;;;;-1.05;100.00;97470.34;5058266;28;20239;-61
2023/11/30 03:16:03;;;;;;;12.23;5.22;;;;;;;-1.01;100.00;97474.34;5050823;28;20020;-61
2023/11/30 03:18:28;;;;;;;9.88;5.05;;;;;;;-0.93;100.00;97471.69;5057391;28;20102;-61
2023/11/30 03:20:53;;;;;;;11.15;5.18;;;;;;;-0.87;100.00;97465.72;5061990;28;20032;-61
2023/11/30 03:23:19;;;;;;;13.63;6.43;;;;;;;-0.82;100.00;97459.94;5069866;28;20024;-61
2023/11/30 03:25:45;;;;;;;11.95;5.60;;;;;;;-0.90;100.00;97469.53;5062863;28;20030;-61
2023/11/30 03:28:11;;;;;;;13.32;6.28;;;;;;;-0.91;100.00;97469.72;5059205;28;20107;-61
2023/11/30 03:30:36;;;;;;;14.43;6.45;;;;;;;-0.95;100.00;97461.22;5062523;28;20107;-61
2023/11/30 03:33:01;;;;;;;18.60;7.70;;;;;;;-1.04;100.00;97461.41;5051203;28;20025;-61
2023/11/30 03:35:27;;;;;;;22.52;8.75;;;;;;;-1.07;100.00;97461.69;5058110;28;20059;-61
2023/11/30 03:37:52;;;;;;;21.10;9.02;;;;;;;-1.08;100.00;97454.75;5058457;28;20020;-61
2023/11/30 03:40:17;;;;;;;16.85;7.85;;;;;;;-1.05;100.00;97443.81;5057866;28;20025;-61
2023/11/30 03:42:43;;;;;;;15.50;7.05;;;;;;;-1.00;100.00;97439.66;5043839;28;20033;-62
2023/11/30 03:45:08;;;;;;;17.80;6.60;;;;;;;-0.97;100.00;97427.88;5057874;28;20017;-62
2023/11/30 03:47:34;;;;;;;11.55;6.07;;;;;;;-1.02;100.00;97431.06;5053098;28;20029;-61
2023/11/30 03:49:59;;;;;;;14.00;5.60;;;;;;;-1.00;100.00;97426.38;5064152;28;20049;-61
2023/11/30 03:52:48;;;;;;;10.15;5.22;;;;;;;-1.06;100.00;97429.72;5063726;28;20039;-61
2023/11/30 03:55:14;;;;;;;12.70;5.50;;;;;;;-1.11;100.00;97430.19;5065725;28;20035;-61
2023/11/30 03:57:39;;;;;;;15.30;5.32;;;;;;;-1.10;100.00;97428.38;5054907;28;20428;-61
2023/11/30 04:00:07;;;;;;;10.68;5.82;;;;;;;-1.07;100.00;97420.09;5050147;28;20025;-61
2023/11/30 04:02:33;;;;;;;7.53;4.13;;;;;;;-1.03;100.00;97413.44;5050019;28;20033;-61
2023/11/30 04:05:03;;;;;;;16.40;5.93;;;;;;;-1.01;100.00;97427.38;5043932;28;20056;-61
2023/11/30 04:07:29;;;;;;;11.52;5.65;;;;;;;-1.00;100.00;97412.28;5056309;28;20086;-61
2023/11/30 04:09:55;;;;;;;10.57;5.60;;;;;;;-1.01;100.00;97408.00;5048447;28;20020;-61
2023/11/30 04:12:20;;;;;;;12.15;5.80;;;;;;;-0.95;100.00;97409.97;5057991;28;20561;-62
2023/11/30 04:14:45;;;;;;;11.50;4.90;;;;;;;-0.96;100.00;97409.16;5046391;28;20115;-61
2023/11/30 04:17:11;;;;;;;10.85;4.82;;;;;;;-0.94;100.00;97407.16;5051462;28;20372;-61
2023/11/30 04:19:36;;;;;;;9.52;5.30;;;;;;;-0.89;100.00;97409.31;5064375;28;20411;-56
2023/11/30 04:22:02;;;;;;;11.32;5.15;;;;;;;-0.90;100.00;97402.34;5056510;28;20056;-56
2023/11/30 04:24:27;;;;;;;10.00;5.35;;;;;;;-0.85;100.00;97408.00;5047328;28;20460;-56
2023/11/30 04:26:53;;;;;;;8.65;5.05;;;;;;;-0.80;100.00;97403.00;5051521;28;20028;-56
2023/11/30 04:29:18;;;;;;;14.00;5.38;;;;;;;-0.80;100.00;97394.22;5054734;28;20043;-56
2023/11/30 04:31:44;;;;;;;12.43;5.38;;;;;;;-0.73;100.00;97389.91;5047944;28;20040;-56
2023/11/30 04:34:09;;;;;;;8.48;4.43;;;;;;;-0.77;100.00;97392.06;5054558;28;20063;-56
2023/11/30 04:36:35;;;;;;;8.95;4.72;;;;;;;-0.77;100.00;97386.75;5057962;28;20111;-56
2023/11/30 04:39:01;;;;;;;7.75;4.10;;;;;;;-0.69;100.00;97381.41;5055915;28;20364;-56
2023/11/30 04:41:26;;;;;;;9.02;5.03;;;;;;;-0.70;100.00;97384.25;5054335;28;20021;-56
2023/11/30 04:43:51;;;;;;;9.82;5.05;;;;;;;-0.73;100.00;97381.94;5056962;28;20048;-56
2023/11/30 04:46:17;;;;;;;9.38;4.55;;;;;;;-0.76;100.00;97382.25;5049500;28;20115;-56
2023/11/30 04:48:42;;;;;;;10.25;4.03;;;;;;;-0.79;100.00;97375.44;5047647;28;20016;-56
2023/11/30 04:51:08;;;;;;;9.98;3.78;;;;;;;-0.90;100.00;97373.97;5052159;28;20063;-56
2023/11/30 04:53:33;;;;;;;6.75;3.80;;;;;;;-1.07;100.00;97368.81;5051045;28;20021;-56
2023/11/30 04:55:58;;;;;;;7.43;3.22;;;;;;;-1.17;100.00;97375.13;5053558;28;20127;-56
2023/11/30 04:58:24;;;;;;;6.00;3.60;;;;;;;-1.22;100.00;97373.97;5051673;28;20032;-56
2023/11/30 05:01:25;;;;;;;11.10;4.35;;;;;;;-1.25;100.00;97380.44;5066247;28;20028;-56
2023/11/30 05:03:50;;;;;;;8.80;4.07;;;;;;;-1.31;100.00;97378.44;5054624;28;20029;-56
2023/11/30 05:06:16;;;;;;;7.63;3.95;;;;;;;-1.30;100.00;97369.47;5051377;28;20024;-56
2023/11/30 05:08:41;;;;;;;10.88;4.85;;;;;;;-1.35;100.00;97364.66;5061914;28;20432;-56
2023/11/30 05:11:07;;;;;;;9.23;4.78;;;;;;;-1.35;100.00;97359.34;5050644;28;20027;-56
2023/11/30 05:13:32;;;;;;;9.35;5.38;;;;;;;-1.35;100.00;97363.81;5044423;28;20039;-57
2023/11/30 05:15:59;;;;;;;12.23;5.57;;;;;;;-1.41;100.00;97356.53;5058578;28;20070;-56
2023/11/30 05:18:24;;;;;;;11.82;5.25;;;;;;;-1.37;100.00;97368.47;5071695;28;20025;-57
2023/11/30 05:20:50;;;;;;;10.07;5.05;;;;;;;-1.43;100.00;97369.13;5046219;28;20430;-56
2023/11/30 05:23:15;;;;;;;9.60;5.53;;;;;;;-1.37;100.00;97365.81;5045491;28;20542;-57
2023/11/30 05:25:40;;;;;;;14.20;5.60;;;;;;;-1.37;100.00;97363.16;5042216;28;20052;-57
2023/11/30 05:28:06;;;;;;;11.60;5.43;;;;;;;-1.34;100.00;97378.75;5054780;28;20031;-56
2023/11/30 05:30:32;;;;;;;8.68;5.05;;;;;;;-1.37;100.00;97371.94;5059799;28;20013;-57
2023/11/30 05:32:57;;;;;;;9.48;4.70;;;;;;;-1.32;100.00;97368.81;5048821;28;20032;-57
2023/11/30 05:35:23;;;;;;;9.90;5.03;;;;;;;-1.30;100.00;97373.97;5052415;28;20025;-61
2023/11/30 05:37:50;;;;;;;12.20;4.95;;;;;;;-1.15;100.00;97373.13;5042023;28;20029;-61
2023/11/30 05:40:18;;;;;;;7.82;4.70;;;;;;;-1.12;100.00;97374.63;5053562;28;20052;-60
2023/11/30 05:42:43;;;;;;;9.55;5.40;;;;;;;-1.11;100.00;97378.94;5060393;28;20078;-61
2023/11/30 05:45:09;;;;;;;11.73;5.75;;;;;;;-1.12;100.00;97378.13;5054849;28;20033;-61
2023/11/30 05:47:34;;;;;;;13.88;7.25;;;;;;;-1.04;100.00;97379.94;5054023;28;20021;-61
2023/11/30 05:50:04;;;;;;;12.43;6.07;;;;;;;-1.02;100.00;97380.63;5055560;28;20021;-61
2023/11/30 05:52:30;;;;;;;10.57;6.72;;;;;;;-1.17;100.00;97369.81;5040579;28;20025;-61
2023/11/30 05:54:57;;;;;;;10.85;6.07;;;;;;;-1.08;100.00;97372.47;5052947;28;20361;-60
2023/11/30 05:57:23;;;;;;;14.90;7.25;;;;;;;-1.22;100.00;97376.63;5054158;28;20033;-61
2023/11/30 05:59:48;;;;;;;9.30;5.50;;;;;;;-1.24;100.00;97362.69;5055096;28;20486;-61
2023/11/30 06:02:15;;;;;;;12.52;6.13;;;;;;;-1.32;100.00;97364.31;5040150;28;20025;-60
2023/11/30 06:04:51;;;;;;;17.15;7.25;;;;;;;-1.36;100.00;97359.53;5067669;28;20036;-61
2023/11/30 06:07:17;;;;;;;11.48;6.93;;;;;;;-1.43;100.00;97347.91;5069529;28;20035;-61
2023/11/30 06:09:43;;;;;;;15.90;8.18;;;;;;;-1.40;100.00;97347.56;5053278;28;20380;-61
2023/11/30 06:12:09;;;;;;;13.98;7.20;;;;;;;-1.32;100.00;97339.63;5052987;28;20027;-61
2023/11/30 06:14:35;;;;;;;17.58;8.45;;;;;;;-1.32;100.00;97334.31;5043940;28;20162;-61
2023/11/30 06:17:00;;;;;;;19.20;8.07;;;;;;;-1.26;100.00;97333.66;5045498;28;20025;-61
2023/11/30 06:19:26;;;;;;;16.60;7.90;;;;;;;-1.19;100.00;97334.66;5046770;28;20021;-61
2023/11/30 06:21:51;;;;;;;14.55;8.30;;;;;;;-1.12;100.00;97333.00;5051065;28;20415;-61
2023/11/30 06:24:16;;;;;;;14.75;7.78;;;;;;;-1.16;100.00;97339.63;5050180;28;20480;-61
2023/11/30 06:26:42;;;;;;;14.25;7.53;;;;;;;-1.14;100.00;97340.28;5053379;28;20025;-61
2023/11/30 06:29:11;;;;;;;16.67;8.40;;;;;;;-1.18;100.00;97349.59;5056698;28;20020;-62
2023/11/30 06:31:37;;;;;;;22.17;11.98;;;;;;;-1.25;100.00;97348.59;5060055;28;20033;-61
2023/11/30 06:34:07;;;;;;;17.15;8.30;;;;;;;-1.38;100.00;97350.91;5063417;28;20386;-61
2023/11/30 06:36:33;;;;;;;11.77;6.13;;;;;;;-1.45;100.00;97352.53;5054359;28;20036;-61
2023/11/30 06:38:58;;;;;;;14.07;6.88;;;;;;;-1.46;100.00;97351.72;5051659;28;20032;-61
2023/11/30 06:41:25;;;;;;;15.25;6.90;;;;;;;-1.45;100.00;97350.72;5048454;28;20138;-56
2023/11/30 06:43:50;;;;;;;13.30;7.72;;;;;;;-1.42;100.00;97354.84;5055539;28;20410;-56
2023/11/30 06:46:25;;;;;;;17.55;7.15;;;;;;;-1.40;100.00;97339.63;5058126;28;20031;-55
2023/11/30 06:48:50;;;;;;;11.38;5.65;;;;;;;-1.40;100.00;97321.88;5050393;28;20028;-55
2023/11/30 06:51:16;;;;;;;18.30;7.15;;;;;;;-1.34;100.00;97325.69;5054641;28;20033;-55
2023/11/30 06:53:42;;;;;;;13.95;6.90;;;;;;;-1.22;100.00;97329.69;5069638;28;20029;-57
2023/11/30 06:56:13;;;;;;;14.50;6.45;;;;;;;-1.28;100.00;97305.63;5065728;22;20107;-79
2023/11/30 06:58:39;;;;;;;12.63;6.00;;;;;;;-1.27;100.00;97286.06;5039012;28;20045;-80
2023/11/30 07:01:26;;;;;;;8.05;4.93;;;;;;;-1.00;100.00;97308.78;5044295;28;20063;-80
2023/11/30 07:03:52;;;;;;;10.48;4.38;;;;;;;-1.16;100.00;97275.09;5029797;28;20021;-78
2023/11/30 07:06:18;;;;;;;13.40;5.45;;;;;;;-0.97;100.00;97289.84;5049422;28;20028;-77
2023/11/30 07:08:44;;;;;;;9.02;4.18;;;;;;;-0.89;100.00;97289.88;5034054;28;20041;-73
2023/11/30 07:11:14;;;;;;;11.98;5.15;;;;;;;-0.78;100.00;97300.13;5043105;28;20310;-76
2023/11/30 07:13:40;;;;;;;12.30;5.13;;;;;;;-0.81;100.00;97281.88;5061051;28;20067;-79
2023/11/30 07:16:06;;;;;;;12.05;6.45;;;;;;;-0.67;100.00;97291.78;5041189;28;20018;-78
2023/11/30 07:18:31;;;;;;;14.18;6.40;;;;;;;-0.86;100.00;97215.19;5045135;28;20038;-78
2023/11/30 07:20:57;;;;;;;17.65;6.47;;;;;;;-0.42;100.00;97274.94;5055599;28;20052;-77
2023/11/30 07:23:22;;;;;;;25.65;9.68;;;;;;;-0.39;100.00;97280.75;5033203;28;20096;-76
2023/11/30 07:25:48;;;;;;;19.13;7.38;;;;;;;-0.34;100.00;97293.50;5043378;28;20025;-74
2023/11/30 07:28:13;;;;;;;14.90;6.70;;;;;;;-0.28;100.00;97287.53;5043508;28;20025;-78
2023/11/30 07:30:41;;;;;;;12.80;6.32;;;;;;;-0.35;100.00;97279.41;5036423;28;20328;-76
2023/11/30 07:33:09;;;;;;;10.50;5.63;;;;;;;-0.38;100.00;97263.00;5042789;28;20222;-78
2023/11/30 07:35:36;;;;;;;7.22;3.63;;;;;;;-0.08;100.00;97279.94;5044326;28;20021;-78
2023/11/30 07:38:02;;;;;;;9.55;4.70;;;;;;;-0.17;100.00;97271.19;5035995;28;20096;-76
2023/11/30 07:40:27;;;;;;;8.18;4.35;;;;;;;0.09;100.00;97278.06;5036885;28;20017;-78
2023/11/30 07:42:53;;;;;;;11.82;5.00;;;;;;;0.09;100.00;97275.38;5022469;28;20026;-80
2023/11/30 07:45:18;;;;;;;8.80;4.88;;;;;;;0.12;100.00;97278.53;5044706;28;20040;-79
2023/11/30 07:47:43;;;;;;;10.45;6.18;;;;;;;-0.06;100.00;97272.63;5047024;28;20045;-80
2023/11/30 07:50:09;;;;;;;27.17;7.90;;;;;;;0.18;100.00;97275.19;5029730;28;20075;-75
2023/11/30 07:52:37;;;;;;;17.15;5.88;;;;;;;0.05;100.00;97253.63;5046321;28;20017;-77
2023/11/30 07:55:03;;;;;;;16.45;5.40;;;;;;;0.32;100.00;97292.22;5045864;28;20025;-77
2023/11/30 07:57:28;;;;;;;22.25;7.82;;;;;;;0.39;100.00;97289.66;5041173;28;20097;-77
2023/11/30 07:59:53;;;;;;;9.70;4.60;;;;;;;0.30;100.00;97267.59;5038760;28;20287;-76
2023/11/30 08:02:19;;;;;;;9.93;4.55;;;;;;;0.18;100.00;97239.75;5044632;28;20025;-74
2023/11/30 08:04:44;;;;;;;11.00;5.00;;;;;;;0.52;100.00;97273.09;5044499;28;20033;-75
2023/11/30 08:07:09;;;;;;;13.18;5.78;;;;;;;0.74;100.00;97287.44;5044694;28;20017;-75
2023/11/30 08:09:34;;;;;;;10.75;4.82;;;;;;;0.75;100.00;97281.09;5035341;28;20283;-75
2023/11/30 08:12:00;;;;;;;11.27;4.55;;;;;;;0.76;100.00;97266.75;5041223;28;20085;-75
2023/11/30 08:14:25;;;;;;;13.98;4.15;;;;;;;0.75;100.00;97249.97;5041725;28;20418;-74
2023/11/30 08:16:50;;;;;;;8.63;4.25;;;;;;;0.81;100.00;97257.25;5044697;28;20069;-75
2023/11/30 08:19:15;;;;;;;8.07;4.72;;;;;;;0.92;100.00;97244.50;5041530;28;20093;-78
2023/11/30 08:21:41;;;;;;;9.55;4.32;;;;;;;0.93;100.00;97231.00;5038668;28;20075;-79
2023/11/30 08:24:10;;;;;;;8.95;4.60;;;;;;;1.01;100.00;97225.59;5023590;28;20021;-77
2023/11/30 08:26:35;;;;;;;8.65;4.18;;;;;;;1.39;100.00;97256.66;5043281;28;20053;-77
2023/11/30 08:29:01;;;;;;;8.88;4.53;;;;;;;1.73;100.00;97267.63;5035676;28;20210;-77
2023/11/30 08:31:26;;;;;;;7.68;3.83;;;;;;;1.80;100.00;97254.34;5028466;28;20029;-76
2023/11/30 08:33:51;;;;;;;8.63;4.35;;;;;;;1.89;100.00;97247.09;5024667;28;20022;-75
2023/11/30 08:36:17;;;;;;;13.38;4.40;;;;;;;2.07;100.00;97258.19;5038612;28;20017;-75
2023/11/30 08:38:42;;;;;;;10.77;4.60;;;;;;;1.94;100.00;97239.38;5030859;28;20096;-77
2023/11/30 08:41:08;;;;;;;8.15;4.20;;;;;;;1.92;100.00;97230.72;5044305;28;20030;-78
2023/11/30 08:43:33;;;;;;;7.00;3.97;;;;;;;2.02;100.00;97236.59;5043764;28;20037;-77
2023/11/30 08:45:58;;;;;;;6.38;4.03;;;;;;;2.15;100.00;97228.72;5043404;28;20060;-77
2023/11/30 08:48:25;;;;;;;7.78;3.88;;;;;;;2.34;100.00;97226.47;5043514;28;20348;-76
2023/11/30 08:50:50;;;;;;;8.40;3.55;;;;;;;2.80;100.00;97237.56;5031711;28;20029;-76
2023/11/30 08:53:16;;;;;;;9.00;4.18;;;;;;;3.02;100.00;97219.66;5031150;28;20021;-79
2023/11/30 08:55:44;;;;;;;9.25;3.45;;;;;;;3.50;100.00;97202.88;5025866;28;20032;-78
2023/11/30 08:58:11;;;;;;;6.18;3.10;;;;;;;3.53;100.00;97191.78;5043942;28;20025;-76
2023/11/30 09:00:39;;;;;;;7.15;3.78;;;;;;;4.31;100.00;97199.47;5043919;28;20025;-77
2023/11/30 09:03:04;;;;;;;10.25;3.67;;;;;;;4.52;100.00;97207.31;5044552;28;20278;-77
2023/11/30 09:05:30;;;;;;;9.00;4.38;;;;;;;5.07;100.00;97215.16;5025183;28;20021;-77
2023/11/30 09:07:55;;;;;;;12.85;6.38;;;;;;;5.25;100.00;97209.19;5041663;28;20372;-77
2023/11/30 09:10:20;;;;;;;13.55;6.72;;;;;;;6.13;100.00;97200.66;5043934;28;20017;-79
2023/11/30 09:12:46;;;;;;;10.65;5.35;;;;;;;6.09;100.00;97202.94;5043461;28;20025;-78
2023/11/30 09:15:12;;;;;;;5.68;3.50;;;;;;;6.08;100.00;97187.88;5025143;28;20056;-77
2023/11/30 09:17:38;;;;;;;6.63;3.20;;;;;;;6.28;100.00;97184.25;5043864;28;20060;-78
2023/11/30 09:20:07;;;;;;;8.50;4.93;;;;;;;6.59;100.00;97172.69;5028030;28;20025;-77
2023/11/30 09:22:33;;;;;;;7.13;3.65;;;;;;;6.84;100.00;97191.53;5041731;28;20029;-77
2023/11/30 09:24:58;;;;;;;9.27;5.57;;;;;;;7.58;100.00;97191.66;5021778;28;20031;-80
2023/11/30 09:27:23;;;;;;;6.80;3.90;;;;;;;7.34;100.00;97179.91;5042586;28;20273;-78
2023/11/30 09:29:49;;;;;;;8.68;5.35;;;;;;;7.90;100.00;97186.94;5026232;28;20021;-72
2023/11/30 09:32:15;;;;;;;10.25;5.22;;;;;;;8.56;100.00;97213.00;5043686;28;20033;-75
2023/11/30 09:34:40;;;;;;;10.45;4.13;;;;;;;8.03;100.00;97221.78;5040547;28;20032;-75
2023/11/30 09:37:06;;;;;;;6.07;3.17;;;;;;;8.53;100.00;97207.25;5040772;28;20018;-75
2023/11/30 09:39:31;;;;;;;8.70;3.70;;;;;;;8.00;100.00;97200.69;5029314;28;20218;-74
2023/11/30 09:41:59;;;;;;;5.57;3.30;;;;;;;7.49;100.00;97195.66;5042513;28;20032;-79
2023/11/30 09:44:26;;;;;;;7.72;3.65;;;;;;;6.91;100.00;97207.59;5032618;28;20026;-77
2023/11/30 09:46:51;;;;;;;5.30;3.00;;;;;;;6.98;100.00;97194.91;5027705;28;20045;-76
2023/11/30 09:49:16;;;;;;;5.88;2.90;;;;;;;7.72;100.00;97198.53;5037551;28;20032;-73
2023/11/30 09:51:50;;;;;;;5.53;3.38;;;;;;;8.26;100.00;97180.66;5038227;28;20029;-74
2023/11/30 09:54:16;;;;;;;7.10;3.40;;;;;;;7.64;100.00;97174.59;5043108;28;20053;-75
2023/11/30 09:56:42;;;;;;;6.45;3.60;;;;;;;8.35;100.00;97175.75;5041819;28;20326;-75
2023/11/30 09:59:07;;;;;;;6.63;3.60;;;;;;;7.59;100.00;97187.91;5040192;28;20033;-75
2023/11/30 10:01:33;;;;;;;4.90;3.00;;;;;;;7.24;100.00;97178.53;5043739;28;20033;-75
2023/11/30 10:03:58;;;;;;;6.25;3.50;;;;;;;6.70;100.00;97176.53;5041915;28;20022;-74
2023/11/30 10:06:24;;;;;;;7.43;3.53;;;;;;;6.52;100.00;97179.97;5041220;28;20148;-74
2023/11/30 10:08:49;;;;;;;5.43;3.20;;;;;;;6.69;100.00;97170.34;5041710;28;20195;-75
2023/11/30 10:11:14;;;;;;;4.78;3.13;;;;;;;6.42;100.00;97142.00;5042279;28;20025;-75
2023/11/30 10:13:40;;;;;;;8.23;3.83;;;;;;;6.38;100.00;97165.00;5024920;28;20326;-75
2023/11/30 10:16:06;;;;;;;8.63;3.72;;;;;;;7.30;100.00;97159.88;5037618;28;20025;-75
2023/11/30 10:18:33;;;;;;;6.53;4.10;;;;;;;7.48;100.00;97149.09;5024824;28;20017;-75
2023/11/30 10:21:01;;;;;;;7.63;4.07;;;;;;;6.93;100.00;97149.06;5038537;28;20143;-75
2023/11/30 10:23:27;;;;;;;6.47;3.85;;;;;;;7.81;100.00;97158.69;5040434;28;20029;-75
2023/11/30 10:25:55;;;;;;;8.15;4.13;;;;;;;8.18;100.00;97135.19;5041245;28;20048;-75
2023/11/30 10:28:21;;;;;;;7.63;4.38;;;;;;;7.77;100.00;97133.25;5040018;28;20052;-74
2023/11/30 10:30:50;;;;;;;9.40;5.22;;;;;;;7.66;100.00;97122.19;5041095;28;20112;-74
2023/11/30 10:33:22;;;;;;;11.27;6.05;;;;;;;8.03;100.00;97124.00;5041574;28;20028;-75
2023/11/30 10:35:50;;;;;;;10.73;5.85;;;;;;;8.44;100.00;97119.72;5034242;28;20096;-75
2023/11/30 10:38:28;;;;;;;9.30;5.68;;;;;;;9.16;100.00;97112.25;5044916;28;20030;-75
2023/11/30 10:41:12;;;;;;;9.55;5.28;;;;;;;9.53;98.21;97113.84;5040178;28;20017;-76
2023/11/30 10:43:37;;;;;;;7.93;4.75;;;;;;;9.29;90.09;97102.25;5010779;28;20061;-77
2023/11/30 10:46:07;;;;;;;11.40;5.90;;;;;;;9.34;90.66;97122.09;5029737;28;20036;-77
2023/11/30 10:48:38;;;;;;;9.52;5.15;;;;;;;9.59;86.00;97119.13;5041013;28;20028;-76
2023/11/30 10:51:05;;;;;;;14.50;6.80;;;;;;;8.83;89.13;97099.38;5039167;28;20040;-76
2023/11/30 10:53:49;;;;;;;7.25;4.63;;;;;;;8.52;97.80;97120.19;5042172;28;20314;-77
2023/11/30 10:56:16;;;;;;;7.93;4.72;;;;;;;8.75;100.00;97108.63;5024425;28;20108;-78
2023/11/30 10:58:44;;;;;;;7.80;4.65;;;;;;;7.89;100.00;97118.78;5041370;28;20060;-77
2023/11/30 11:01:11;;;;;;;8.32;5.10;;;;;;;7.76;100.00;97120.84;5050040;28;20052;-76
2023/11/30 11:03:45;;;;;;;8.50;4.45;;;;;;;7.41;100.00;97122.28;5041171;28;20025;-76
2023/11/30 11:06:11;;;;;;;6.18;3.83;;;;;;;7.19;100.00;97110.31;5041469;28;20017;-79
2023/11/30 11:08:36;;;;;;;8.18;4.45;;;;;;;7.44;100.00;97096.78;5019292;28;20222;-78
2023/11/30 11:11:07;;;;;;;10.40;4.88;;;;;;;7.21;100.00;97103.69;5040208;28;20034;-79
2023/11/30 11:13:34;;;;;;;6.93;4.35;;;;;;;7.47;100.00;97101.72;5034234;28;20025;-80
2023/11/30 11:16:02;;;;;;;9.13;4.45;;;;;;;7.03;100.00;97091.03;5040222;28;20024;-79
2023/11/30 11:18:32;;;;;;;6.25;4.03;;;;;;;6.99;100.00;97108.63;5015326;28;20088;-79
2023/11/30 11:20:58;;;;;;;6.97;4.03;;;;;;;6.83;100.00;97113.78;5038739;28;20220;-78
2023/11/30 11:23:32;;;;;;;6.80;3.90;;;;;;;6.32;100.00;97099.53;5049523;28;20022;-78